Time;durP1;ratioP1;P1;durP2;ratioP2;P2;SDS_P1;SDS_P2;PMS_P1;PMS_P2;Temp;Humidity;BMP_temperature;BMP_pressure;BME280_temperature;BME280_humidity;BME280_pressure;Samples;Min_cycle;Max_cycle;Signal;HPM_P1;HPM_P2
2022/05/11 00:00:41;;;;;;;12.90;7.90;;;18.90;87.70;;;;;;21060571;28;20256;-63
2022/05/11 00:10:43;;;;;;;10.20;8.00;;;18.70;88.20;;;;;;21078542;28;20210;-63
2022/05/11 00:20:45;;;;;;;12.47;8.50;;;18.60;88.80;;;;;;21077384;28;20246;-60
2022/05/11 00:30:47;;;;;;;11.60;8.70;;;18.50;89.90;;;;;;21086795;28;20616;-60
2022/05/11 00:40:55;;;;;;;10.53;8.33;;;18.30;90.40;;;;;;21093869;28;20240;-69
2022/05/11 00:50:57;;;;;;;9.17;8.27;;;18.20;90.80;;;;;;21093039;28;20538;-66
2022/05/11 01:00:59;;;;;;;14.00;8.33;;;18.10;91.00;;;;;;21091937;28;20288;-67
2022/05/11 01:11:03;;;;;;;10.50;8.30;;;18.00;91.40;;;;;;21092044;28;20265;-70
2022/05/11 01:21:07;;;;;;;12.33;8.57;;;17.90;91.50;;;;;;21090273;28;20247;-64
2022/05/11 01:31:10;;;;;;;10.47;8.73;;;17.90;91.70;;;;;;21089686;28;20203;-70
2022/05/11 01:41:27;;;;;;;10.83;7.67;;;17.80;92.10;;;;;;21088904;28;20635;-61
2022/05/11 01:51:28;;;;;;;10.50;8.90;;;17.70;92.20;;;;;;21087937;28;20217;-65
2022/05/11 02:01:33;;;;;;;12.63;8.57;;;17.70;92.40;;;;;;21089020;28;20234;-68
2022/05/11 02:11:35;;;;;;;13.30;8.60;;;17.70;92.40;;;;;;21090655;28;20266;-65
2022/05/11 02:21:37;;;;;;;12.17;9.10;;;17.70;92.50;;;;;;21085022;28;20242;-64
2022/05/11 02:31:39;;;;;;;9.77;8.67;;;17.80;92.40;;;;;;21084451;28;20263;-66
2022/05/11 02:41:41;;;;;;;9.77;8.77;;;17.90;92.30;;;;;;21085112;28;20266;-64
2022/05/11 02:51:43;;;;;;;10.33;8.80;;;17.90;92.20;;;;;;21066251;28;20203;-71
2022/05/11 03:01:44;;;;;;;10.27;8.87;;;17.90;92.20;;;;;;21082273;28;20234;-70
2022/05/11 03:11:47;;;;;;;9.47;8.50;;;17.90;92.20;;;;;;21081671;28;20257;-70
2022/05/11 03:21:50;;;;;;;12.23;9.30;;;18.00;92.20;;;;;;21080309;28;20238;-72
2022/05/11 03:42:16;;;;;;;10.30;9.17;;;17.90;92.20;;;;;;21079270;28;20228;-68
2022/05/11 03:52:18;;;;;;;13.17;9.30;;;17.90;92.40;;;;;;21079144;28;20286;-71
2022/05/11 04:02:20;;;;;;;10.17;8.30;;;17.90;92.40;;;;;;21077136;28;20234;-73
2022/05/11 04:12:24;;;;;;;9.37;7.33;;;18.00;92.50;;;;;;21077732;28;20260;-69
2022/05/11 04:22:26;;;;;;;9.60;7.73;;;18.20;92.10;;;;;;21077839;28;20729;-72
2022/05/11 04:32:27;;;;;;;8.63;7.70;;;18.50;91.80;;;;;;21076858;28;20207;-72
2022/05/11 04:42:30;;;;;;;8.47;6.77;;;18.50;91.50;;;;;;21076730;28;20269;-62
2022/05/11 04:52:31;;;;;;;7.77;5.90;;;18.70;91.00;;;;;;21074957;28;20211;-71
2022/05/11 05:02:33;;;;;;;7.33;6.10;;;18.90;90.50;;;;;;21074599;28;20753;-73
2022/05/11 05:12:36;;;;;;;6.60;6.00;;;19.00;90.10;;;;;;21074427;28;20244;-69
2022/05/11 05:22:38;;;;;;;9.27;6.20;;;19.20;89.80;;;;;;21087497;28;20244;-71
2022/05/11 05:32:42;;;;;;;6.83;5.40;;;19.30;89.20;;;;;;21088466;28;20648;-71
2022/05/11 05:42:44;;;;;;;10.67;5.53;;;19.40;88.70;;;;;;21087790;28;20238;-70
2022/05/11 05:52:49;;;;;;;8.87;5.60;;;19.60;88.20;;;;;;21068728;28;20210;-68
2022/05/11 06:02:51;;;;;;;9.67;4.90;;;20.00;87.60;;;;;;21084293;28;20239;-71
2022/05/11 06:12:53;;;;;;;6.13;5.07;;;20.20;86.90;;;;;;21083562;28;20294;-69
2022/05/11 06:22:54;;;;;;;11.40;5.70;;;20.50;85.50;;;;;;21082613;28;20265;-69
2022/05/11 06:32:56;;;;;;;5.60;4.90;;;20.70;84.00;;;;;;21082479;28;20264;-63
2022/05/11 06:42:58;;;;;;;8.10;5.60;;;20.90;82.60;;;;;;21082135;28;20240;-68
2022/05/11 06:53:11;;;;;;;5.40;4.90;;;21.10;81.40;;;;;;21063220;28;20229;-67
2022/05/11 07:03:13;;;;;;;8.57;7.03;;;21.20;80.80;;;;;;21080791;28;20237;-68
2022/05/11 07:13:16;;;;;;;10.43;4.93;;;21.40;80.40;;;;;;21082036;28;20535;-64
2022/05/11 07:23:17;;;;;;;6.67;4.60;;;21.60;79.80;;;;;;21080145;28;20241;-67
2022/05/11 07:33:19;;;;;;;7.53;4.57;;;21.80;79.30;;;;;;21078934;28;20199;-69
2022/05/11 07:43:21;;;;;;;5.03;4.53;;;22.00;78.30;;;;;;21078242;28;20281;-69
2022/05/11 07:53:23;;;;;;;7.23;4.43;;;22.20;77.30;;;;;;21093069;28;20237;-67
2022/05/11 08:03:24;;;;;;;5.50;4.03;;;22.50;76.50;;;;;;21080791;28;20371;-69
2022/05/11 08:13:26;;;;;;;4.97;4.40;;;22.70;74.70;;;;;;21062858;28;20214;-69
2022/05/11 08:23:28;;;;;;;8.10;3.63;;;23.00;73.60;;;;;;21109506;28;20239;-71
2022/05/11 08:33:33;;;;;;;4.60;3.90;;;23.20;72.30;;;;;;21088286;28;20208;-64
2022/05/11 08:44:11;;;;;;;5.47;4.07;;;23.40;70.90;;;;;;21078631;28;20746;-69
2022/05/11 08:54:19;;;;;;;8.43;3.77;;;23.60;69.80;;;;;;21088554;28;20225;-68
2022/05/11 09:04:37;;;;;;;4.90;3.90;;;23.80;68.40;;;;;;21090737;28;20356;-69
2022/05/11 09:14:42;;;;;;;9.50;4.17;;;24.00;67.20;;;;;;21088737;28;20345;-63
2022/05/11 09:24:47;;;;;;;4.00;3.60;;;24.10;65.50;;;;;;21087391;28;20234;-70
2022/05/11 09:34:49;;;;;;;5.07;3.60;;;24.30;64.20;;;;;;21086078;28;20221;-66
2022/05/11 09:44:52;;;;;;;5.50;3.70;;;24.40;63.20;;;;;;21085903;28;20344;-64
2022/05/11 09:54:54;;;;;;;4.20;3.60;;;24.60;62.40;;;;;;21068475;28;20206;-65
2022/05/11 10:05:04;;;;;;;4.63;3.83;;;24.80;62.20;;;;;;21085710;28;20230;-69
2022/05/11 10:25:48;;;;;;;8.80;3.40;;;25.10;60.70;;;;;;21084564;28;20233;-69
2022/05/11 10:36:02;;;;;;;4.43;3.40;;;25.30;59.70;;;;;;21083249;28;20666;-64
2022/05/11 10:46:15;;;;;;;3.77;3.23;;;25.60;58.90;;;;;;21082155;28;20269;-69
2022/05/11 10:56:34;;;;;;;5.13;3.13;;;25.70;57.40;;;;;;21080545;28;20206;-69
2022/05/11 11:07:13;;;;;;;8.83;3.97;;;25.80;56.50;;;;;;21080880;28;20333;-68
2022/05/11 11:17:19;;;;;;;5.07;3.10;;;26.00;55.90;;;;;;21078854;28;20288;-67
2022/05/11 11:28:00;;;;;;;4.03;3.00;;;26.10;54.50;;;;;;21079150;28;20203;-69
2022/05/11 11:38:02;;;;;;;5.13;3.13;;;26.20;53.80;;;;;;21078539;28;20275;-61
2022/05/11 11:48:05;;;;;;;6.23;3.50;;;26.40;53.90;;;;;;21078828;28;20214;-66
2022/05/11 11:58:35;;;;;;;4.80;3.00;;;26.50;53.00;;;;;;21078059;28;20681;-65
2022/05/11 12:19:11;;;;;;;4.63;2.80;;;27.10;50.40;;;;;;21077373;28;20234;-68
2022/05/11 12:39:36;;;;;;;4.67;2.90;;;27.50;48.20;;;;;;21092880;28;20784;-68
2022/05/11 12:49:38;;;;;;;5.80;2.40;;;27.50;47.80;;;;;;21091754;28;20213;-72
2022/05/11 12:59:54;;;;;;;7.80;3.30;;;27.60;47.30;;;;;;21024332;28;20710;-77
2022/05/11 13:09:59;;;;;;;3.37;2.80;;;27.60;49.50;;;;;;21007128;28;20569;-75
2022/05/11 13:20:03;;;;;;;5.10;2.90;;;27.40;49.20;;;;;;21052646;28;20246;-71
2022/05/11 13:30:42;;;;;;;4.43;3.45;;;27.50;48.60;;;;;;21067144;28;20692;-73
2022/05/11 13:40:59;;;;;;;5.73;3.00;;;27.60;47.10;;;;;;21087257;28;20234;-64
2022/05/11 13:51:29;;;;;;;4.63;3.10;;;27.70;46.60;;;;;;21081499;28;20202;-73
2022/05/11 14:01:40;;;;;;;3.93;3.20;;;27.80;45.10;;;;;;21079816;28;20242;-72
2022/05/11 14:11:42;;;;;;;4.85;3.10;;;28.00;44.50;;;;;;21081668;28;20203;-70
2022/05/11 14:21:45;;;;;;;5.82;2.95;;;28.40;43.90;;;;;;21028934;28;1043906;-69
2022/05/11 14:31:48;;;;;;;11.13;9.93;;;29.70;43.70;;;;;;21065590;28;20203;-70
2022/05/11 14:41:50;;;;;;;4.88;3.13;;;30.90;41.60;;;;;;21081087;28;20262;-70
2022/05/11 14:51:51;;;;;;;9.02;6.82;;;31.30;41.70;;;;;;21078957;28;20206;-69
2022/05/11 15:01:58;;;;;;;3.38;3.08;;;32.40;40.30;;;;;;21082144;28;20242;-68
2022/05/11 15:22:30;;;;;;;13.05;4.53;;;32.50;39.80;;;;;;21080105;28;20344;-70
2022/05/11 15:32:32;;;;;;;8.57;3.45;;;31.00;41.10;;;;;;21079417;28;20202;-71
2022/05/11 15:42:34;;;;;;;5.55;3.67;;;29.90;42.70;;;;;;21082347;28;20238;-68
2022/05/11 15:52:42;;;;;;;5.32;3.60;;;29.50;43.50;;;;;;21083373;28;20292;-61
2022/05/11 16:02:44;;;;;;;10.20;3.58;;;29.10;43.40;;;;;;21059369;28;20231;-62
2022/05/11 16:12:46;;;;;;;4.15;3.47;;;28.80;43.50;;;;;;21077889;28;20218;-68
2022/05/11 16:22:48;;;;;;;6.38;3.40;;;28.80;43.70;;;;;;21077350;28;20720;-67
2022/05/11 16:32:50;;;;;;;4.88;3.80;;;29.20;43.90;;;;;;21076489;28;20672;-68
2022/05/11 16:42:52;;;;;;;8.77;3.00;;;30.10;43.20;;;;;;21056864;28;20721;-64
2022/05/11 16:52:54;;;;;;;5.47;2.67;;;29.40;43.10;;;;;;21075136;28;20613;-67
2022/05/11 17:02:56;;;;;;;4.60;1.95;;;29.40;40.40;;;;;;21055622;28;20230;-67
2022/05/11 17:12:59;;;;;;;4.55;2.47;;;28.70;39.70;;;;;;21087040;28;20207;-70
2022/05/11 17:23:04;;;;;;;4.15;2.90;;;28.70;39.60;;;;;;21091336;28;20271;-66
2022/05/11 17:33:06;;;;;;;5.27;2.70;;;28.10;41.00;;;;;;21089097;28;20662;-65
2022/05/11 17:43:09;;;;;;;6.00;2.47;;;27.70;41.40;;;;;;21068128;28;20231;-69
2022/05/11 17:53:12;;;;;;;3.87;2.70;;;27.40;41.60;;;;;;21077688;28;20209;-67
2022/05/11 18:03:14;;;;;;;9.20;4.67;;;27.10;41.40;;;;;;21085542;28;20234;-66
2022/05/11 18:13:17;;;;;;;8.40;3.23;;;26.80;41.80;;;;;;21075624;28;20198;-69
2022/05/11 18:23:21;;;;;;;7.90;7.00;;;26.50;42.30;;;;;;21084626;28;20300;-70
2022/05/11 18:33:24;;;;;;;15.90;4.03;;;26.20;42.80;;;;;;21083286;28;20206;-71
2022/05/11 18:43:26;;;;;;;9.23;3.73;;;26.00;44.70;;;;;;21092384;28;20226;-73
2022/05/11 18:53:28;;;;;;;6.73;4.27;;;25.70;45.30;;;;;;21098809;28;20229;-74
2022/05/11 19:03:29;;;;;;;8.00;3.33;;;25.50;45.90;;;;;;21084361;28;20244;-66
2022/05/11 19:13:31;;;;;;;5.43;4.60;;;25.30;46.20;;;;;;21081947;28;20232;-66
2022/05/11 19:23:33;;;;;;;12.50;4.43;;;25.10;46.70;;;;;;21088015;28;20773;-68
2022/05/11 19:33:39;;;;;;;8.07;3.53;;;25.00;46.90;;;;;;21080173;28;20238;-74
2022/05/11 19:43:42;;;;;;;7.37;3.40;;;24.80;46.90;;;;;;21078793;28;20226;-72
2022/05/11 19:53:45;;;;;;;7.50;3.37;;;24.60;47.10;;;;;;21079730;28;20205;-76
2022/05/11 20:03:47;;;;;;;8.97;4.07;;;24.40;47.50;;;;;;21078577;28;20453;-70
2022/05/11 20:13:49;;;;;;;5.73;3.10;;;24.30;47.70;;;;;;21077972;28;20210;-70
2022/05/11 20:23:50;;;;;;;5.70;4.10;;;24.20;47.90;;;;;;20996415;28;20247;-65
2022/05/11 20:44:18;;;;;;;5.03;3.10;;;24.00;48.70;;;;;;20996723;28;20281;-62
2022/05/11 20:54:20;;;;;;;10.60;3.47;;;24.00;49.20;;;;;;21009125;28;20211;-66
2022/05/11 21:04:26;;;;;;;3.30;3.00;;;24.00;49.80;;;;;;21008536;28;20265;-62
2022/05/11 21:14:27;;;;;;;5.07;2.90;;;23.90;50.20;;;;;;20991883;28;20246;-63
2022/05/11 21:24:29;;;;;;;3.30;2.93;;;23.90;50.70;;;;;;21090560;28;20235;-67
2022/05/11 21:34:31;;;;;;;5.67;3.13;;;23.80;51.10;;;;;;21091363;28;20232;-65
2022/05/11 21:44:33;;;;;;;5.23;3.20;;;23.70;51.40;;;;;;21089107;28;20712;-63
2022/05/11 21:54:34;;;;;;;4.43;2.67;;;23.60;51.80;;;;;;21088414;28;20719;-63
2022/05/11 22:04:36;;;;;;;5.10;3.70;;;23.60;52.10;;;;;;21099668;28;20238;-62
2022/05/11 22:14:38;;;;;;;9.10;3.33;;;23.50;52.40;;;;;;21093197;28;20237;-62
2022/05/11 22:24:39;;;;;;;6.27;3.30;;;23.50;52.80;;;;;;21085811;28;20240;-62
2022/05/11 22:34:41;;;;;;;4.90;2.90;;;23.40;53.20;;;;;;21085481;28;20210;-70
2022/05/11 22:44:43;;;;;;;5.60;3.60;;;23.30;53.60;;;;;;21084404;28;20572;-63
2022/05/11 22:54:44;;;;;;;6.67;3.07;;;23.20;54.00;;;;;;21083538;28;20275;-64
2022/05/11 23:04:46;;;;;;;4.63;3.17;;;23.10;54.40;;;;;;21083134;28;20248;-67
2022/05/11 23:14:50;;;;;;;4.87;3.33;;;23.10;54.90;;;;;;21081437;28;20713;-66
2022/05/11 23:24:51;;;;;;;3.83;3.33;;;23.00;55.30;;;;;;21063407;28;20382;-65
2022/05/11 23:34:53;;;;;;;5.90;3.50;;;22.90;55.40;;;;;;21080628;28;20237;-65
2022/05/11 23:44:55;;;;;;;6.90;3.40;;;22.90;55.70;;;;;;21061851;28;20234;-64
2022/05/11 23:54:56;;;;;;;5.43;3.60;;;22.50;58.70;;;;;;21079319;28;20206;-64
